createdAt,value
2019-02-02T00:00:17.490Z,97470.11
2019-02-02T00:02:45.919Z,97466.84
2019-02-02T00:05:12.498Z,97469.47
2019-02-02T00:07:38.820Z,97465.38
2019-02-02T00:10:06.707Z,97464.30
2019-02-02T00:12:33.083Z,97459.22
2019-02-02T00:14:59.655Z,97465.31
2019-02-02T00:17:27.296Z,97462.52
2019-02-02T00:19:55.805Z,97465.93
2019-02-02T00:22:21.849Z,97470.68
2019-02-02T00:24:48.428Z,97464.98
2019-02-02T00:27:15.108Z,97468.91
2019-02-02T00:29:41.727Z,97462.27
2019-02-02T00:32:08.040Z,97463.19
2019-02-02T00:34:34.353Z,97459.90
2019-02-02T00:37:00.679Z,97466.53
2019-02-02T00:39:27.108Z,97469.34
2019-02-02T00:41:53.439Z,97470.41
2019-02-02T00:44:19.767Z,97469.80
2019-02-02T00:46:46.098Z,97469.83
2019-02-02T00:49:12.452Z,97473.06
2019-02-02T00:51:38.776Z,97479.74
2019-02-02T00:54:05.388Z,97477.42
2019-02-02T00:56:31.992Z,97479.85
2019-02-02T00:58:58.318Z,97480.60
2019-02-02T01:01:24.825Z,97483.13
2019-02-02T01:03:51.242Z,97475.71
2019-02-02T01:06:17.788Z,97473.11
2019-02-02T01:08:44.111Z,97475.06
2019-02-02T01:11:11.261Z,97474.75
2019-02-02T01:13:37.581Z,97476.70
2019-02-02T01:16:04.588Z,97470.58
2019-02-02T01:18:31.146Z,97470.98
2019-02-02T01:20:57.473Z,97474.65
2019-02-02T01:23:23.803Z,97470.30
2019-02-02T01:25:50.127Z,97476.34
2019-02-02T01:28:16.471Z,97480.33
2019-02-02T01:30:43.086Z,97486.14
2019-02-02T01:33:09.663Z,97484.64
2019-02-02T01:35:35.980Z,97480.98
2019-02-02T01:38:02.497Z,97469.92
2019-02-02T01:40:29.079Z,97466.22
2019-02-02T01:42:55.755Z,97466.41
2019-02-02T01:45:24.728Z,97477.40
2019-02-02T01:47:51.625Z,97487.19
2019-02-02T01:50:23.985Z,97478.25
2019-02-02T01:52:50.380Z,97473.25
2019-02-02T01:55:17.294Z,97477.25
2019-02-02T01:57:43.937Z,97493.27
2019-02-02T02:00:20.790Z,97488.84
2019-02-02T02:02:47.081Z,97465.66
2019-02-02T02:05:13.744Z,97455.19
2019-02-02T02:07:41.827Z,97461.11
2019-02-02T02:10:14.905Z,97459.59
2019-02-02T02:12:42.307Z,97459.77
2019-02-02T02:15:12.521Z,97467.47
2019-02-02T02:17:39.028Z,97468.05
2019-02-02T02:20:09.163Z,97465.01
2019-02-02T02:22:41.198Z,97458.61
2019-02-02T02:25:09.558Z,97458.41
2019-02-02T02:27:36.159Z,97454.67
2019-02-02T02:30:08.801Z,97451.97
2019-02-02T02:32:35.320Z,97455.26
2019-02-02T02:35:02.788Z,97456.35
2019-02-02T02:37:29.209Z,97454.72
2019-02-02T02:39:55.548Z,97446.92
2019-02-02T02:42:22.155Z,97437.40
2019-02-02T02:44:48.537Z,97446.48
2019-02-02T02:47:15.899Z,97438.72
2019-02-02T02:49:42.263Z,97430.88
2019-02-02T02:52:08.853Z,97431.39
2019-02-02T02:54:35.197Z,97432.37
2019-02-02T02:57:01.628Z,97446.84
2019-02-02T02:59:27.947Z,97449.31
2019-02-02T03:01:54.536Z,97443.27
2019-02-02T03:04:21.165Z,97441.08
2019-02-02T03:06:47.959Z,97441.44
2019-02-02T03:09:14.543Z,97445.80
2019-02-02T03:11:41.147Z,97453.45
2019-02-02T03:14:07.878Z,97451.69
2019-02-02T03:16:34.266Z,97458.52
2019-02-02T03:19:00.908Z,97453.67
2019-02-02T03:21:27.252Z,97465.00
2019-02-02T03:23:53.545Z,97456.17
2019-02-02T03:26:20.138Z,97454.84
2019-02-02T03:28:53.505Z,97450.65
2019-02-02T03:31:14.661Z,97463.98
2019-02-02T03:33:40.964Z,97452.14
2019-02-02T03:36:07.278Z,97445.91
2019-02-02T03:38:33.874Z,97450.40
2019-02-02T03:41:00.165Z,97446.91
2019-02-02T03:43:26.496Z,97446.91
2019-02-02T03:45:52.957Z,97441.62
2019-02-02T03:48:19.269Z,97439.66
2019-02-02T03:50:45.617Z,97440.55
2019-02-02T03:53:13.616Z,97446.67
2019-02-02T03:55:40.440Z,97460.05
2019-02-02T03:58:06.743Z,97467.16
2019-02-02T04:00:33.113Z,97473.14
2019-02-02T04:02:59.403Z,97465.09
2019-02-02T04:05:28.503Z,97468.65
2019-02-02T04:07:55.037Z,97470.81
2019-02-02T04:10:21.602Z,97470.13
2019-02-02T04:12:48.185Z,97464.45
2019-02-02T04:15:18.607Z,97459.45
2019-02-02T04:17:45.243Z,97455.88
2019-02-02T04:20:15.457Z,97447.32
2019-02-02T04:22:41.883Z,97446.73
2019-02-02T04:25:08.860Z,97466.71
2019-02-02T04:27:35.178Z,97473.55
2019-02-02T04:30:03.480Z,97467.70
2019-02-02T04:32:30.308Z,97456.08
2019-02-02T04:34:56.868Z,97460.75
2019-02-02T04:37:23.473Z,97457.07
2019-02-02T04:39:49.771Z,97477.20
2019-02-02T04:42:16.402Z,97479.66
2019-02-02T04:44:42.730Z,97469.89
2019-02-02T04:47:10.061Z,97463.91
2019-02-02T04:49:36.362Z,97479.27
2019-02-02T04:52:02.826Z,97472.42
2019-02-02T04:54:29.150Z,97464.70
2019-02-02T04:56:55.892Z,97466.81
2019-02-02T04:59:29.015Z,97496.02
2019-02-02T05:01:50.432Z,97480.84
2019-02-02T05:04:17.094Z,97473.59
2019-02-02T05:06:43.410Z,97477.28
2019-02-02T05:09:09.715Z,97498.73
2019-02-02T05:11:36.054Z,97511.14
2019-02-02T05:14:02.967Z,97503.78
2019-02-02T05:16:29.293Z,97502.31
2019-02-02T05:18:55.621Z,97502.19
2019-02-02T05:21:21.930Z,97516.34
2019-02-02T05:23:48.263Z,97513.52
2019-02-02T05:26:14.581Z,97503.77
2019-02-02T05:28:40.910Z,97509.69
2019-02-02T05:31:07.470Z,97515.41
2019-02-02T05:33:33.968Z,97516.78
2019-02-02T05:36:00.589Z,97520.72
2019-02-02T05:38:26.926Z,97525.86
2019-02-02T05:40:54.478Z,97534.17
2019-02-02T05:43:20.917Z,97543.48
2019-02-02T05:45:47.443Z,97531.71
2019-02-02T05:48:13.795Z,97527.81
2019-02-02T05:50:40.112Z,97506.85
2019-02-02T05:53:06.734Z,97517.55
2019-02-02T05:55:33.308Z,97523.35
2019-02-02T05:57:59.798Z,97520.58
2019-02-02T06:00:36.888Z,97519.95
2019-02-02T06:03:03.720Z,97514.54
2019-02-02T06:05:30.039Z,97516.84
2019-02-02T06:07:56.352Z,97507.13
2019-02-02T06:10:22.966Z,97502.50
2019-02-02T06:12:49.536Z,97514.10
2019-02-02T06:15:16.179Z,97523.54
2019-02-02T06:17:42.460Z,97533.00
2019-02-02T06:20:12.686Z,97539.44
2019-02-02T06:22:39.052Z,97545.67
2019-02-02T06:25:09.636Z,97556.69
2019-02-02T06:27:35.992Z,97561.73
2019-02-02T06:30:08.260Z,97554.48
2019-02-02T06:32:34.610Z,97551.45
2019-02-02T06:35:01.227Z,97551.80
2019-02-02T06:37:27.946Z,97566.00
2019-02-02T06:39:54.505Z,97569.77
2019-02-02T06:42:20.813Z,97559.05
2019-02-02T06:44:47.119Z,97568.47
2019-02-02T06:47:13.448Z,97575.22
2019-02-02T06:49:39.782Z,97579.72
2019-02-02T06:52:06.332Z,97578.52
2019-02-02T06:54:33.915Z,97573.78
2019-02-02T06:57:00.392Z,97561.10
2019-02-02T06:59:26.993Z,97567.88
2019-02-02T07:01:54.613Z,97565.75
2019-02-02T07:04:20.949Z,97565.21
2019-02-02T07:06:47.525Z,97567.33
2019-02-02T07:09:14.000Z,97577.82
2019-02-02T07:11:40.305Z,97592.01
2019-02-02T07:14:07.038Z,97593.48
2019-02-02T07:16:33.624Z,97593.88
2019-02-02T07:18:59.930Z,97609.17
2019-02-02T07:21:26.265Z,97605.28
2019-02-02T07:23:52.843Z,97609.45
2019-02-02T07:26:19.389Z,97617.08
2019-02-02T07:28:46.003Z,97619.73
2019-02-02T07:31:12.562Z,97614.80
2019-02-02T07:33:39.155Z,97622.81
2019-02-02T07:36:05.502Z,97630.18
2019-02-02T07:38:31.843Z,97631.42
2019-02-02T07:40:58.209Z,97640.62
2019-02-02T07:43:24.871Z,97637.23
2019-02-02T07:45:51.269Z,97641.82
2019-02-02T07:48:17.874Z,97649.59
2019-02-02T07:50:44.623Z,97661.94
2019-02-02T07:53:10.962Z,97666.05
2019-02-02T07:55:37.623Z,97668.52
2019-02-02T07:58:04.050Z,97658.52
2019-02-02T08:00:40.695Z,97667.74
2019-02-02T08:03:05.623Z,97665.91
2019-02-02T08:05:32.014Z,97671.94
2019-02-02T08:07:59.383Z,97675.85
2019-02-02T08:10:25.720Z,97675.23
2019-02-02T08:12:52.277Z,97677.97
2019-02-02T08:15:25.468Z,97678.23
2019-02-02T08:17:51.756Z,97672.26
2019-02-02T08:20:18.492Z,97671.77
2019-02-02T08:22:44.975Z,97680.34
2019-02-02T08:25:14.253Z,97681.32
2019-02-02T08:27:40.827Z,97669.84
2019-02-02T08:30:17.647Z,97675.14
2019-02-02T08:32:45.527Z,97690.08
2019-02-02T08:35:12.528Z,97700.14
2019-02-02T08:37:40.555Z,97703.75
2019-02-02T08:40:11.383Z,97694.63
2019-02-02T08:42:38.068Z,97700.72
2019-02-02T08:45:07.291Z,97705.75
2019-02-02T08:47:33.595Z,97723.84
2019-02-02T08:49:59.933Z,97732.33
2019-02-02T08:52:26.553Z,97741.71
2019-02-02T08:54:52.927Z,97746.08
2019-02-02T08:57:19.373Z,97751.09
2019-02-02T08:59:45.999Z,97754.16
2019-02-02T09:02:12.753Z,97755.63
2019-02-02T09:04:39.116Z,97754.64
2019-02-02T09:07:05.823Z,97753.42
2019-02-02T09:09:33.143Z,97762.59
2019-02-02T09:11:59.730Z,97768.59
2019-02-02T09:14:26.047Z,97763.73
2019-02-02T09:16:52.389Z,97774.53
2019-02-02T09:19:18.682Z,97779.06
2019-02-02T09:21:45.047Z,97765.56
2019-02-02T09:24:11.633Z,97757.50
2019-02-02T09:26:38.214Z,97754.22
2019-02-02T09:29:04.790Z,97764.69
2019-02-02T09:31:31.131Z,97763.59
2019-02-02T09:33:57.425Z,97762.68
2019-02-02T09:36:24.021Z,97769.92
2019-02-02T09:38:50.598Z,97777.14
2019-02-02T09:41:16.927Z,97779.77
2019-02-02T09:43:43.241Z,97781.65
2019-02-02T09:46:09.560Z,97779.48
2019-02-02T09:48:35.881Z,97787.63
2019-02-02T09:51:02.210Z,97782.92
2019-02-02T09:53:28.565Z,97781.53
2019-02-02T09:55:55.130Z,97788.19
2019-02-02T09:58:21.693Z,97783.80
2019-02-02T10:00:48.265Z,97783.06
2019-02-02T10:03:14.836Z,97790.83
2019-02-02T10:05:41.651Z,97787.98
2019-02-02T10:08:08.109Z,97792.22
2019-02-02T10:10:34.817Z,97789.93
2019-02-02T10:13:01.366Z,97786.44
2019-02-02T10:15:28.123Z,97794.02
2019-02-02T10:17:55.025Z,97798.22
2019-02-02T10:20:26.710Z,97792.15
2019-02-02T10:22:54.501Z,97793.02
2019-02-02T10:25:26.495Z,97792.38
2019-02-02T10:27:52.945Z,97792.23
2019-02-02T10:30:37.277Z,97797.00
2019-02-02T10:33:04.586Z,97791.10
2019-02-02T10:35:31.180Z,97786.29
2019-02-02T10:37:57.491Z,97797.16
2019-02-02T10:40:24.287Z,97791.37
2019-02-02T10:42:50.633Z,97784.36
2019-02-02T10:45:17.435Z,97791.03
2019-02-02T10:47:44.545Z,97789.20
2019-02-02T10:50:20.574Z,97798.62
2019-02-02T10:52:47.278Z,97793.25
2019-02-02T10:55:14.615Z,97803.43
2019-02-02T10:57:42.510Z,97808.00
2019-02-02T11:00:18.631Z,97806.61
2019-02-02T11:02:45.985Z,97795.95
2019-02-02T11:05:13.426Z,97815.03
2019-02-02T11:07:39.771Z,97824.47
2019-02-02T11:10:11.513Z,97825.91
2019-02-02T11:12:38.126Z,97825.20
2019-02-02T11:15:10.589Z,97829.52
2019-02-02T11:17:36.967Z,97828.50
2019-02-02T11:20:08.970Z,97832.03
2019-02-02T11:22:39.671Z,97828.09
2019-02-02T11:25:11.390Z,97827.45
2019-02-02T11:27:37.818Z,97828.73
2019-02-02T11:30:11.777Z,97825.42
2019-02-02T11:32:38.248Z,97830.42
2019-02-02T11:35:09.372Z,97834.92
2019-02-02T11:37:35.693Z,97828.45
2019-02-02T11:40:07.103Z,97833.78
2019-02-02T11:42:33.777Z,97834.36
2019-02-02T11:45:00.112Z,97838.10
2019-02-02T11:47:26.634Z,97841.84
2019-02-02T11:49:53.223Z,97846.64
2019-02-02T11:52:19.542Z,97853.33
2019-02-02T11:54:45.884Z,97854.29
2019-02-02T11:57:12.239Z,97859.70
2019-02-02T11:59:38.583Z,97858.70
2019-02-02T12:02:14.236Z,97866.38
2019-02-02T12:04:33.124Z,97869.41
2019-02-02T12:06:59.450Z,97865.64
2019-02-02T12:09:25.746Z,97869.09
2019-02-02T12:11:52.334Z,97868.90
2019-02-02T12:14:18.935Z,97882.42
2019-02-02T12:16:45.495Z,97885.59
2019-02-02T12:19:12.060Z,97892.77
2019-02-02T12:21:39.376Z,97893.05
2019-02-02T12:24:13.270Z,97898.81
2019-02-02T12:26:34.175Z,97895.10
2019-02-02T12:29:00.799Z,97890.59
2019-02-02T12:31:27.439Z,97894.50
2019-02-02T12:33:54.081Z,97897.84
2019-02-02T12:36:20.385Z,97896.00
2019-02-02T12:38:46.958Z,97905.59
2019-02-02T12:41:13.275Z,97908.16
2019-02-02T12:43:39.916Z,97915.64
2019-02-02T12:46:06.825Z,97920.36
2019-02-02T12:48:33.375Z,97919.61
2019-02-02T12:50:59.718Z,97921.68
2019-02-02T12:53:26.049Z,97918.92
2019-02-02T12:55:52.617Z,97921.37
2019-02-02T12:58:18.921Z,97932.55
2019-02-02T13:00:45.734Z,97926.59
2019-02-02T13:03:12.412Z,97935.15
2019-02-02T13:05:39.225Z,97944.19
2019-02-02T13:08:05.864Z,97953.89
2019-02-02T13:10:32.175Z,97959.70
2019-02-02T13:12:58.505Z,97954.48
2019-02-02T13:15:25.182Z,97964.23
2019-02-02T13:17:51.896Z,97956.80
2019-02-02T13:20:18.631Z,97946.85
2019-02-02T13:22:45.048Z,97941.52
2019-02-02T13:25:20.338Z,97947.39
2019-02-02T13:27:46.622Z,97947.48
2019-02-02T13:30:17.761Z,97953.16
2019-02-02T13:32:49.749Z,97946.04
2019-02-02T13:35:15.011Z,97941.53
2019-02-02T13:37:41.269Z,97942.33
2019-02-02T13:40:13.127Z,97949.59
2019-02-02T13:42:39.707Z,97959.89
2019-02-02T13:45:08.282Z,97960.71
2019-02-02T13:47:34.862Z,97955.11
2019-02-02T13:50:01.468Z,97954.20
2019-02-02T13:52:28.132Z,97964.19
2019-02-02T13:54:54.547Z,97972.09
2019-02-02T13:57:20.875Z,97975.06
2019-02-02T13:59:47.223Z,97985.72
2019-02-02T14:02:13.516Z,97979.29
2019-02-02T14:04:39.868Z,97986.03
2019-02-02T14:07:17.455Z,97995.67
2019-02-02T14:09:34.421Z,97992.09
2019-02-02T14:12:00.731Z,97988.34
2019-02-02T14:14:27.392Z,97996.61
2019-02-02T14:16:53.669Z,97994.19
2019-02-02T14:19:20.001Z,97997.83
2019-02-02T14:21:46.347Z,98016.78
2019-02-02T14:24:12.913Z,98014.95
2019-02-02T14:26:39.303Z,98026.55
2019-02-02T14:29:05.726Z,98030.67
2019-02-02T14:31:32.063Z,98030.36
2019-02-02T14:33:58.375Z,98025.67
2019-02-02T14:36:24.707Z,98025.06
2019-02-02T14:38:51.055Z,98035.44
2019-02-02T14:41:17.695Z,98036.92
2019-02-02T14:43:44.538Z,98039.06
2019-02-02T14:46:11.221Z,98039.96
2019-02-02T14:48:37.956Z,98035.50
2019-02-02T14:51:04.434Z,98038.31
2019-02-02T14:53:31.010Z,98037.72
2019-02-02T14:55:57.347Z,98047.23
2019-02-02T14:58:23.662Z,98038.06
2019-02-02T15:00:49.979Z,98034.06
2019-02-02T15:03:25.648Z,98042.09
2019-02-02T15:05:44.506Z,98063.45
2019-02-02T15:08:11.102Z,98072.63
2019-02-02T15:10:37.653Z,98082.22
2019-02-02T15:13:04.345Z,98087.89
2019-02-02T15:15:30.974Z,98084.00
2019-02-02T15:17:57.534Z,98083.77
2019-02-02T15:20:32.826Z,98086.59
2019-02-02T15:23:00.141Z,98084.78
2019-02-02T15:25:26.952Z,98090.79
2019-02-02T15:27:53.257Z,98087.23
2019-02-02T15:30:24.935Z,98088.60
2019-02-02T15:32:51.336Z,98086.58
2019-02-02T15:35:17.753Z,98075.67
2019-02-02T15:37:44.072Z,98089.85
2019-02-02T15:40:15.166Z,98099.04
2019-02-02T15:42:42.448Z,98097.52
2019-02-02T15:45:16.512Z,98111.36
2019-02-02T15:47:43.216Z,98118.45
2019-02-02T15:50:14.335Z,98121.30
2019-02-02T15:52:41.423Z,98119.36
2019-02-02T15:55:20.321Z,98128.72
2019-02-02T15:57:49.551Z,98134.17
2019-02-02T16:00:21.238Z,98142.70
2019-02-02T16:02:47.706Z,98155.31
2019-02-02T16:05:17.324Z,98164.33
2019-02-02T16:07:44.073Z,98169.23
2019-02-02T16:10:19.540Z,98176.21
2019-02-02T16:12:46.393Z,98175.21
2019-02-02T16:15:13.028Z,98187.63
2019-02-02T16:17:39.364Z,98201.05
2019-02-02T16:20:18.318Z,98209.98
2019-02-02T16:22:44.666Z,98214.52
2019-02-02T16:25:15.304Z,98220.13
2019-02-02T16:27:42.049Z,98216.66
2019-02-02T16:30:21.956Z,98223.13
2019-02-02T16:32:48.269Z,98234.27
2019-02-02T16:35:14.617Z,98232.13
2019-02-02T16:37:42.080Z,98239.87
2019-02-02T16:40:13.803Z,98244.72
2019-02-02T16:42:40.456Z,98241.27
2019-02-02T16:45:17.916Z,98247.27
2019-02-02T16:47:44.579Z,98254.00
2019-02-02T16:50:16.561Z,98263.64
2019-02-02T16:52:43.891Z,98263.48
2019-02-02T16:55:13.830Z,98268.00
2019-02-02T16:57:40.261Z,98276.88
2019-02-02T17:00:12.456Z,98279.00
2019-02-02T17:02:39.577Z,98281.34
2019-02-02T17:05:09.298Z,98286.50
2019-02-02T17:07:36.015Z,98293.91
2019-02-02T17:10:15.164Z,98300.09
2019-02-02T17:12:41.790Z,98303.20
2019-02-02T17:15:10.132Z,98305.19
2019-02-02T17:17:36.782Z,98313.98
2019-02-02T17:20:22.813Z,98310.58
2019-02-02T17:22:49.454Z,98312.12
2019-02-02T17:25:18.064Z,98314.84
2019-02-02T17:27:44.490Z,98318.01
2019-02-02T17:30:18.592Z,98321.23
2019-02-02T17:32:46.025Z,98328.44
2019-02-02T17:35:14.905Z,98334.91
2019-02-02T17:37:43.170Z,98346.59
2019-02-02T17:40:20.942Z,98351.66
2019-02-02T17:42:49.859Z,98355.66
2019-02-02T17:45:18.939Z,98360.22
2019-02-02T17:47:45.423Z,98361.66
2019-02-02T17:50:21.696Z,98368.98
2019-02-02T17:52:48.117Z,98375.11
2019-02-02T17:55:14.742Z,98364.34
2019-02-02T17:57:41.415Z,98365.66
2019-02-02T18:00:23.745Z,98369.95
2019-02-02T18:02:50.945Z,98374.27
2019-02-02T18:05:17.715Z,98391.89
2019-02-02T18:07:44.347Z,98350.21
2019-02-02T18:10:14.806Z,98394.95
2019-02-02T18:12:41.967Z,98398.93
2019-02-02T18:15:12.018Z,98405.41
2019-02-02T18:17:38.337Z,98405.69
2019-02-02T18:20:10.606Z,98400.21
2019-02-02T18:22:38.796Z,98402.95
2019-02-02T18:25:15.248Z,98403.28
2019-02-02T18:27:39.940Z,98409.95
2019-02-02T18:30:20.895Z,98410.08
2019-02-02T18:32:49.463Z,98407.46
2019-02-02T18:35:16.277Z,98408.09
2019-02-02T18:37:42.979Z,98417.30
2019-02-02T18:40:18.848Z,98424.19
2019-02-02T18:42:45.251Z,98423.45
2019-02-02T18:45:17.418Z,98424.39
2019-02-02T18:47:45.185Z,98420.14
2019-02-02T18:50:16.280Z,98428.50
2019-02-02T18:52:44.074Z,98420.71
2019-02-02T18:55:25.731Z,98431.30
2019-02-02T18:57:52.767Z,98432.60
2019-02-02T19:00:20.195Z,98435.67
2019-02-02T19:02:47.255Z,98445.59
2019-02-02T19:05:17.334Z,98445.96
2019-02-02T19:07:43.780Z,98439.25
2019-02-02T19:10:19.794Z,98446.61
2019-02-02T19:12:46.562Z,98443.55
2019-02-02T19:15:13.028Z,98449.67
2019-02-02T19:17:39.740Z,98460.91
2019-02-02T19:20:13.585Z,98465.97
2019-02-02T19:22:40.372Z,98479.70
2019-02-02T19:25:09.143Z,98476.73
2019-02-02T19:27:35.488Z,98485.47
2019-02-02T19:30:05.735Z,98490.20
2019-02-02T19:32:32.278Z,98490.92
2019-02-02T19:34:58.834Z,98497.05
2019-02-02T19:37:25.156Z,98504.59
2019-02-02T19:39:51.502Z,98511.56
2019-02-02T19:42:18.152Z,98509.22
2019-02-02T19:44:44.533Z,98508.17
2019-02-02T19:47:16.256Z,98513.83
2019-02-02T19:49:39.129Z,98510.41
2019-02-02T19:52:05.422Z,98518.59
2019-02-02T19:54:32.841Z,98514.64
2019-02-02T19:56:59.428Z,98509.56
2019-02-02T19:59:25.809Z,98515.29
2019-02-02T20:01:52.145Z,98510.41
2019-02-02T20:04:18.657Z,98521.45
2019-02-02T20:06:46.491Z,98530.58
2019-02-02T20:09:13.323Z,98525.73
2019-02-02T20:11:39.934Z,98529.89
2019-02-02T20:14:06.287Z,98530.26
2019-02-02T20:16:32.889Z,98539.67
2019-02-02T20:18:59.210Z,98534.65
2019-02-02T20:21:25.546Z,98541.08
2019-02-02T20:23:51.957Z,98555.53
2019-02-02T20:26:18.553Z,98569.25
2019-02-02T20:28:46.760Z,98567.95
2019-02-02T20:31:13.336Z,98562.50
2019-02-02T20:33:39.875Z,98567.22
2019-02-02T20:36:08.213Z,98569.69
2019-02-02T20:38:34.625Z,98581.25
2019-02-02T20:41:01.206Z,98584.93
2019-02-02T20:43:27.867Z,98585.88
2019-02-02T20:45:54.208Z,98582.34
2019-02-02T20:48:20.870Z,98581.86
2019-02-02T20:50:47.471Z,98593.11
2019-02-02T20:53:14.468Z,98597.48
2019-02-02T20:55:43.278Z,98596.08
2019-02-02T20:58:11.999Z,98602.58
2019-02-02T21:00:38.811Z,98610.16
2019-02-02T21:03:05.666Z,98616.77
2019-02-02T21:05:32.346Z,98621.98
2019-02-02T21:07:58.735Z,98629.99
2019-02-02T21:10:25.391Z,98632.70
2019-02-02T21:12:51.881Z,98635.30
2019-02-02T21:15:18.301Z,98640.94
2019-02-02T21:17:45.262Z,98660.96
2019-02-02T21:20:15.377Z,98650.45
2019-02-02T21:22:42.182Z,98654.72
2019-02-02T21:25:10.401Z,98666.09
2019-02-02T21:27:36.931Z,98670.38
2019-02-02T21:30:09.163Z,98660.52
2019-02-02T21:32:35.660Z,98657.30
2019-02-02T21:35:02.606Z,98654.42
2019-02-02T21:37:30.321Z,98648.52
2019-02-02T21:39:56.695Z,98646.39
2019-02-02T21:42:23.354Z,98640.62
2019-02-02T21:44:49.948Z,98639.59
2019-02-02T21:47:16.643Z,98639.48
2019-02-02T21:49:42.977Z,98645.86
2019-02-02T21:52:09.714Z,98650.35
2019-02-02T21:54:36.609Z,98644.56
2019-02-02T21:57:03.210Z,98641.49
2019-02-02T21:59:29.665Z,98654.41
2019-02-02T22:01:57.040Z,98655.55
2019-02-02T22:04:23.703Z,98667.25
2019-02-02T22:06:50.009Z,98672.43
2019-02-02T22:09:16.340Z,98682.80
2019-02-02T22:11:44.619Z,98678.50
2019-02-02T22:14:11.441Z,98684.39
2019-02-02T22:16:37.779Z,98692.75
2019-02-02T22:19:04.329Z,98693.14
2019-02-02T22:21:31.039Z,98695.42
2019-02-02T22:23:57.613Z,98693.31
2019-02-02T22:26:24.208Z,98697.25
2019-02-02T22:28:51.134Z,98711.66
2019-02-02T22:31:17.721Z,98708.59
2019-02-02T22:33:46.210Z,98718.00
2019-02-02T22:36:12.794Z,98723.13
2019-02-02T22:38:39.376Z,98733.84
2019-02-02T22:41:07.049Z,98750.95
2019-02-02T22:43:33.762Z,98753.23
2019-02-02T22:46:00.079Z,98756.22
2019-02-02T22:48:26.668Z,98751.04
2019-02-02T22:50:53.243Z,98757.83
2019-02-02T22:53:19.877Z,98770.69
2019-02-02T22:55:46.524Z,98783.93
2019-02-02T22:58:12.820Z,98786.94
2019-02-02T23:00:55.891Z,98798.11
2019-02-02T23:03:55.336Z,98808.00
2019-02-02T23:06:45.363Z,98820.06
2019-02-02T23:10:00.839Z,98825.89
2019-02-02T23:12:56.403Z,98818.80
2019-02-02T23:15:34.720Z,98815.80
2019-02-02T23:18:02.255Z,98796.30
2019-02-02T23:20:28.697Z,98803.49
2019-02-02T23:22:55.032Z,98803.49
2019-02-02T23:25:21.597Z,98814.02
2019-02-02T23:27:47.956Z,98813.42
2019-02-02T23:30:15.858Z,98814.76
2019-02-02T23:32:42.196Z,98814.54
2019-02-02T23:35:08.817Z,98821.11
2019-02-02T23:37:35.499Z,98820.70
2019-02-02T23:40:02.251Z,98827.30
2019-02-02T23:42:28.828Z,98826.88
2019-02-02T23:44:55.146Z,98814.35
2019-02-02T23:47:22.459Z,98795.19
2019-02-02T23:49:49.010Z,98797.29
2019-02-02T23:52:15.738Z,98800.70
2019-02-02T23:54:42.049Z,98812.47
2019-02-02T23:57:08.637Z,98832.28
2019-02-02T23:59:35.936Z,98830.52
